createdAt,value
2017-05-08T00:00:19.119Z,71.83
2017-05-08T00:01:20.644Z,72.37
2017-05-08T00:02:42.281Z,71.80
2017-05-08T00:03:43.805Z,72.41
2017-05-08T00:05:05.443Z,71.98
2017-05-08T00:06:06.965Z,68.65
2017-05-08T00:07:28.629Z,63.89
2017-05-08T00:08:30.154Z,61.61
2017-05-08T00:09:51.792Z,57.89
2017-05-08T00:10:53.315Z,57.60
2017-05-08T00:12:14.951Z,56.85
2017-05-08T00:13:16.474Z,55.70
2017-05-08T00:14:38.140Z,55.90
2017-05-08T00:15:39.662Z,55.51
2017-05-08T00:17:01.304Z,54.75
2017-05-08T00:18:02.826Z,55.04
2017-05-08T00:19:24.463Z,54.66
2017-05-08T00:20:25.986Z,55.42
2017-05-08T00:21:47.655Z,55.80
2017-05-08T00:22:49.177Z,56.37
2017-05-08T00:24:10.817Z,57.51
2017-05-08T00:25:12.343Z,57.23
2017-05-08T00:26:34.477Z,57.89
2017-05-08T00:27:36.001Z,57.70
2017-05-08T00:28:57.673Z,58.37
2017-05-08T00:29:59.197Z,59.32
2017-05-08T00:31:20.836Z,57.80
2017-05-08T00:32:22.359Z,57.70
2017-05-08T00:33:43.995Z,55.22
2017-05-08T00:34:45.518Z,51.97
2017-05-08T00:36:07.193Z,50.75
2017-05-08T00:37:08.715Z,50.73
2017-05-08T00:38:30.350Z,51.30
2017-05-08T00:39:31.873Z,51.87
2017-05-08T00:40:53.510Z,50.82
2017-05-08T00:41:55.032Z,49.87
2017-05-08T00:43:16.696Z,49.30
2017-05-08T00:44:18.219Z,50.44
2017-05-08T00:45:39.860Z,50.63
2017-05-08T00:46:41.382Z,49.87
2017-05-08T00:48:03.021Z,48.25
2017-05-08T00:49:04.547Z,47.78
2017-05-08T00:50:26.210Z,47.78
2017-05-08T00:51:27.734Z,48.44
2017-05-08T00:52:49.372Z,48.06
2017-05-08T00:53:50.896Z,47.20
2017-05-08T00:55:12.532Z,47.30
2017-05-08T00:56:14.057Z,46.83
2017-05-08T00:57:35.719Z,46.83
2017-05-08T00:58:37.240Z,47.11
2017-05-08T00:59:58.877Z,47.39
2017-05-08T01:01:00.406Z,48.25
2017-05-08T01:02:22.036Z,47.87
2017-05-08T01:03:23.557Z,48.44
2017-05-08T01:04:45.223Z,49.68
2017-05-08T01:05:46.744Z,49.96
2017-05-08T01:07:08.383Z,50.92
2017-05-08T01:08:09.906Z,52.06
2017-05-08T01:09:31.541Z,53.11
2017-05-08T01:10:33.062Z,53.58
2017-05-08T01:11:54.727Z,54.06
2017-05-08T01:12:56.254Z,54.44
2017-05-08T01:14:17.896Z,55.29
2017-05-08T01:15:19.413Z,54.91
2017-05-08T01:16:41.050Z,55.17
2017-05-08T01:17:42.572Z,55.93
2017-05-08T01:19:04.245Z,56.31
2017-05-08T01:20:05.767Z,56.41
2017-05-08T01:21:27.407Z,55.65
2017-05-08T01:22:28.930Z,55.93
2017-05-08T01:23:50.571Z,56.88
2017-05-08T01:24:52.092Z,56.98
2017-05-08T01:26:13.754Z,58.59
2017-05-08T01:27:15.277Z,58.98
2017-05-08T01:28:36.920Z,59.45
2017-05-08T01:29:38.441Z,59.36
2017-05-08T01:31:00.076Z,59.64
2017-05-08T01:32:01.597Z,59.55
2017-05-08T01:33:23.257Z,60.50
2017-05-08T01:34:24.777Z,60.97
2017-05-08T01:35:46.413Z,60.31
2017-05-08T01:36:47.933Z,60.21
2017-05-08T01:38:09.567Z,61.35
2017-05-08T01:39:11.089Z,61.35
2017-05-08T01:40:32.763Z,61.35
2017-05-08T01:41:34.281Z,60.94
2017-05-08T01:42:55.917Z,61.23
2017-05-08T01:43:57.437Z,61.32
2017-05-08T01:45:19.068Z,61.32
2017-05-08T01:46:20.590Z,61.52
2017-05-08T01:47:42.252Z,61.52
2017-05-08T01:48:43.775Z,61.32
2017-05-08T01:50:05.413Z,61.71
2017-05-08T01:51:06.932Z,62.37
2017-05-08T01:52:28.565Z,62.18
2017-05-08T01:53:30.085Z,62.85
2017-05-08T01:54:51.745Z,63.04
2017-05-08T01:55:53.267Z,63.79
2017-05-08T01:57:14.901Z,63.51
2017-05-08T01:58:16.425Z,63.99
2017-05-08T01:59:38.057Z,63.60
2017-05-08T02:00:39.576Z,64.53
2017-05-08T02:02:01.247Z,65.09
2017-05-08T02:03:02.767Z,64.90
2017-05-08T02:04:24.895Z,64.81
2017-05-08T02:05:26.415Z,65.28
2017-05-08T02:06:48.060Z,65.57
2017-05-08T02:07:49.577Z,65.67
2017-05-08T02:09:11.239Z,65.38
2017-05-08T02:10:12.759Z,65.95
2017-05-08T02:11:34.396Z,65.57
2017-05-08T02:12:35.917Z,65.95
2017-05-08T02:13:57.556Z,66.05
2017-05-08T02:14:59.078Z,65.76
2017-05-08T02:16:20.745Z,66.14
2017-05-08T02:17:22.261Z,65.57
2017-05-08T02:18:43.903Z,65.67
2017-05-08T02:19:45.422Z,66.14
2017-05-08T02:21:07.061Z,66.33
2017-05-08T02:22:08.580Z,66.52
2017-05-08T02:23:30.247Z,66.52
2017-05-08T02:24:31.764Z,66.52
2017-05-08T02:25:53.404Z,66.80
2017-05-08T02:26:54.925Z,66.71
2017-05-08T02:28:16.557Z,66.61
2017-05-08T02:29:18.079Z,66.71
2017-05-08T02:30:39.754Z,66.80
2017-05-08T02:31:41.274Z,67.00
2017-05-08T02:33:02.909Z,66.71
2017-05-08T02:34:04.432Z,66.71
2017-05-08T02:35:26.066Z,66.71
2017-05-08T02:36:27.587Z,66.71
2017-05-08T02:37:49.254Z,66.90
2017-05-08T02:38:50.774Z,66.80
2017-05-08T02:40:12.406Z,67.00
2017-05-08T02:41:14.770Z,66.90
2017-05-08T02:42:36.410Z,66.80
2017-05-08T02:43:37.929Z,66.80
2017-05-08T02:44:59.604Z,66.90
2017-05-08T02:46:01.124Z,67.47
2017-05-08T02:47:22.759Z,66.61
2017-05-08T02:48:24.281Z,66.96
2017-05-08T02:49:45.917Z,66.67
2017-05-08T02:50:47.446Z,66.67
2017-05-08T02:52:09.106Z,67.25
2017-05-08T02:53:10.655Z,67.15
2017-05-08T02:54:32.626Z,66.87
2017-05-08T02:55:34.200Z,66.67
2017-05-08T02:56:56.012Z,66.77
2017-05-08T02:57:57.661Z,66.87
2017-05-08T02:59:19.564Z,66.87
2017-05-08T03:00:21.102Z,66.67
2017-05-08T03:01:42.731Z,66.77
2017-05-08T03:02:44.251Z,66.67
2017-05-08T03:04:05.887Z,66.67
2017-05-08T03:05:07.410Z,66.67
2017-05-08T03:06:29.089Z,66.58
2017-05-08T03:07:30.604Z,66.58
2017-05-08T03:08:52.245Z,67.25
2017-05-08T03:09:53.761Z,67.34
2017-05-08T03:11:15.396Z,66.87
2017-05-08T03:12:16.920Z,67.72
2017-05-08T03:13:38.581Z,67.53
2017-05-08T03:14:40.107Z,68.10
2017-05-08T03:16:01.739Z,68.58
2017-05-08T03:17:03.262Z,68.77
2017-05-08T03:18:24.902Z,69.24
2017-05-08T03:19:26.425Z,69.34
2017-05-08T03:20:48.099Z,69.15
2017-05-08T03:21:49.622Z,69.43
2017-05-08T03:23:11.264Z,69.43
2017-05-08T03:24:12.789Z,69.53
2017-05-08T03:25:34.428Z,69.34
2017-05-08T03:26:35.953Z,69.24
2017-05-08T03:27:57.614Z,69.05
2017-05-08T03:28:59.141Z,69.24
2017-05-08T03:30:20.778Z,68.96
2017-05-08T03:31:22.301Z,68.77
2017-05-08T03:32:43.941Z,68.96
2017-05-08T03:33:45.463Z,68.58
2017-05-08T03:35:07.125Z,68.71
2017-05-08T03:36:08.649Z,67.57
2017-05-08T03:37:30.291Z,66.61
2017-05-08T03:38:31.817Z,66.55
2017-05-08T03:39:53.454Z,65.60
2017-05-08T03:40:54.977Z,64.84
2017-05-08T03:42:16.645Z,64.08
2017-05-08T03:43:18.174Z,63.51
2017-05-08T03:44:39.811Z,63.04
2017-05-08T03:45:41.335Z,62.94
2017-05-08T03:47:02.973Z,63.04
2017-05-08T03:48:04.498Z,63.32
2017-05-08T03:49:26.165Z,62.85
2017-05-08T03:50:27.693Z,62.85
2017-05-08T03:51:49.333Z,63.04
2017-05-08T03:52:50.856Z,62.40
2017-05-08T03:54:12.500Z,61.74
2017-05-08T03:55:14.027Z,61.55
2017-05-08T03:56:35.691Z,61.45
2017-05-08T03:57:37.220Z,61.16
2017-05-08T03:58:58.858Z,60.69
2017-05-08T04:00:00.386Z,60.82
2017-05-08T04:01:22.028Z,60.53
2017-05-08T04:02:23.560Z,60.63
2017-05-08T04:03:45.226Z,60.53
2017-05-08T04:04:46.753Z,60.72
2017-05-08T04:06:08.399Z,60.15
2017-05-08T04:07:09.923Z,60.63
2017-05-08T04:08:31.567Z,60.24
2017-05-08T04:09:33.094Z,60.72
2017-05-08T04:10:54.774Z,61.19
2017-05-08T04:11:56.300Z,60.72
2017-05-08T04:13:17.947Z,60.34
2017-05-08T04:14:19.475Z,59.70
2017-05-08T04:15:41.116Z,59.42
2017-05-08T04:16:42.647Z,58.50
2017-05-08T04:18:04.318Z,57.48
2017-05-08T04:19:05.852Z,57.00
2017-05-08T04:20:27.490Z,56.62
2017-05-08T04:21:29.017Z,55.60
2017-05-08T04:22:50.659Z,54.45
2017-05-08T04:23:52.190Z,53.88
2017-05-08T04:25:13.861Z,53.41
2017-05-08T04:26:15.393Z,53.69
2017-05-08T04:27:37.037Z,53.69
2017-05-08T04:28:39.171Z,53.24
2017-05-08T04:30:00.810Z,52.57
2017-05-08T04:31:02.343Z,52.09
2017-05-08T04:32:24.015Z,52.38
2017-05-08T04:33:25.546Z,52.28
2017-05-08T04:34:47.188Z,51.62
2017-05-08T04:35:48.719Z,51.52
2017-05-08T04:37:10.364Z,51.33
2017-05-08T04:38:11.890Z,51.52
2017-05-08T04:39:33.558Z,52.16
2017-05-08T04:40:35.088Z,51.97
2017-05-08T04:41:56.739Z,53.21
2017-05-08T04:42:58.266Z,53.21
2017-05-08T04:44:20.402Z,53.50
2017-05-08T04:45:21.932Z,53.78
2017-05-08T04:46:43.615Z,54.45
2017-05-08T04:47:45.142Z,54.64
2017-05-08T04:49:06.784Z,54.64
2017-05-08T04:50:08.314Z,54.71
2017-05-08T04:51:29.952Z,54.52
2017-05-08T04:52:31.483Z,54.55
2017-05-08T04:53:53.158Z,54.26
2017-05-08T04:54:54.691Z,54.52
2017-05-08T04:56:16.336Z,54.33
2017-05-08T04:57:17.863Z,54.43
2017-05-08T04:58:39.507Z,54.61
2017-05-08T04:59:41.038Z,54.71
2017-05-08T05:01:02.705Z,54.33
2017-05-08T05:02:04.238Z,54.24
2017-05-08T05:03:25.880Z,54.43
2017-05-08T05:04:27.414Z,55.19
2017-05-08T05:05:49.055Z,54.90
2017-05-08T05:06:50.585Z,55.85
2017-05-08T05:08:12.259Z,55.95
2017-05-08T05:09:13.787Z,55.85
2017-05-08T05:10:35.430Z,55.95
2017-05-08T05:11:36.962Z,55.95
2017-05-08T05:12:58.606Z,55.57
2017-05-08T05:14:00.134Z,55.21
2017-05-08T05:15:21.805Z,55.88
2017-05-08T05:16:23.336Z,55.98
2017-05-08T05:17:44.987Z,56.55
2017-05-08T05:18:46.516Z,56.84
2017-05-08T05:20:08.159Z,57.03
2017-05-08T05:21:09.691Z,57.03
2017-05-08T05:22:31.369Z,57.12
2017-05-08T05:23:32.898Z,57.82
2017-05-08T05:24:54.546Z,57.63
2017-05-08T05:25:56.076Z,57.24
2017-05-08T05:27:17.723Z,57.06
2017-05-08T05:28:19.256Z,56.96
2017-05-08T05:29:40.930Z,56.58
2017-05-08T05:30:42.456Z,56.17
2017-05-08T05:32:04.100Z,56.55
2017-05-08T05:33:05.633Z,56.46
2017-05-08T05:34:27.279Z,56.55
2017-05-08T05:35:28.812Z,56.55
2017-05-08T05:36:50.479Z,56.55
2017-05-08T05:37:52.010Z,56.36
2017-05-08T05:39:13.654Z,57.03
2017-05-08T05:40:15.184Z,56.55
2017-05-08T05:41:36.827Z,56.65
2017-05-08T05:42:38.356Z,56.46
2017-05-08T05:44:00.038Z,56.26
2017-05-08T05:45:01.567Z,57.03
2017-05-08T05:46:23.210Z,56.74
2017-05-08T05:47:24.744Z,56.84
2017-05-08T05:48:46.384Z,56.65
2017-05-08T05:49:47.911Z,56.46
2017-05-08T05:51:09.586Z,55.98
2017-05-08T05:52:11.114Z,54.83
2017-05-08T05:53:32.756Z,54.96
2017-05-08T05:54:34.284Z,54.93
2017-05-08T05:55:55.924Z,54.48
2017-05-08T05:56:57.456Z,54.48
2017-05-08T05:58:19.140Z,54.29
2017-05-08T05:59:20.670Z,53.53
2017-05-08T06:00:42.313Z,52.95
2017-05-08T06:01:43.844Z,53.05
2017-05-08T06:03:05.486Z,53.24
2017-05-08T06:04:07.020Z,53.53
2017-05-08T06:05:28.686Z,53.36
2017-05-08T06:06:30.218Z,52.50
2017-05-08T06:07:51.866Z,52.31
2017-05-08T06:08:53.402Z,52.31
2017-05-08T06:10:15.044Z,51.71
2017-05-08T06:11:16.575Z,51.23
2017-05-08T06:12:38.265Z,51.33
2017-05-08T06:13:39.795Z,51.71
2017-05-08T06:15:01.448Z,51.52
2017-05-08T06:16:02.977Z,51.14
2017-05-08T06:17:24.626Z,50.95
2017-05-08T06:18:26.158Z,50.28
2017-05-08T06:19:47.842Z,49.99
2017-05-08T06:20:49.376Z,49.99
2017-05-08T06:22:11.016Z,48.94
2017-05-08T06:23:12.552Z,49.23
2017-05-08T06:24:34.197Z,48.94
2017-05-08T06:25:35.729Z,48.75
2017-05-08T06:26:57.414Z,48.28
2017-05-08T06:27:58.944Z,48.18
2017-05-08T06:29:20.593Z,48.66
2017-05-08T06:30:22.125Z,48.94
2017-05-08T06:31:43.769Z,48.68
2017-05-08T06:32:45.303Z,48.49
2017-05-08T06:34:06.976Z,48.30
2017-05-08T06:35:08.513Z,48.49
2017-05-08T06:36:30.161Z,47.44
2017-05-08T06:37:31.692Z,47.16
2017-05-08T06:38:53.333Z,46.97
2017-05-08T06:39:54.868Z,47.25
2017-05-08T06:41:16.546Z,46.77
2017-05-08T06:42:18.083Z,46.58
2017-05-08T06:43:39.728Z,45.92
2017-05-08T06:44:41.266Z,45.25
2017-05-08T06:46:02.911Z,44.67
2017-05-08T06:47:04.444Z,44.58
2017-05-08T06:48:26.120Z,44.67
2017-05-08T06:49:27.655Z,44.48
2017-05-08T06:50:49.300Z,44.58
2017-05-08T06:51:50.836Z,44.58
2017-05-08T06:53:12.481Z,44.38
2017-05-08T06:54:14.016Z,44.38
2017-05-08T06:55:35.692Z,44.38
2017-05-08T06:56:37.224Z,43.82
2017-05-08T06:57:58.872Z,43.43
2017-05-08T06:59:00.405Z,43.24
2017-05-08T07:00:22.054Z,43.43
2017-05-08T07:01:23.618Z,43.15
2017-05-08T07:02:45.270Z,43.43
2017-05-08T07:03:46.800Z,43.15
2017-05-08T07:05:08.446Z,43.15
2017-05-08T07:06:09.978Z,43.24
2017-05-08T07:07:31.621Z,43.91
2017-05-08T07:08:33.155Z,43.15
2017-05-08T07:09:54.825Z,43.62
2017-05-08T07:10:56.357Z,43.53
2017-05-08T07:12:18.000Z,43.53
2017-05-08T07:13:19.529Z,43.82
2017-05-08T07:14:41.175Z,43.24
2017-05-08T07:15:42.707Z,44.10
2017-05-08T07:17:04.386Z,44.48
2017-05-08T07:18:05.919Z,44.48
2017-05-08T07:19:27.564Z,44.46
2017-05-08T07:20:29.091Z,43.03
2017-05-08T07:21:50.736Z,42.93
2017-05-08T07:22:52.265Z,42.17
2017-05-08T07:24:13.934Z,43.22
2017-05-08T07:25:15.464Z,42.93
2017-05-08T07:26:37.109Z,42.36
2017-05-08T07:27:38.638Z,42.84
2017-05-08T07:29:00.282Z,42.84
2017-05-08T07:30:01.813Z,42.93
2017-05-08T07:31:23.487Z,43.13
2017-05-08T07:32:25.018Z,42.84
2017-05-08T07:33:46.665Z,42.08
2017-05-08T07:34:48.197Z,41.98
2017-05-08T07:36:09.844Z,42.48
2017-05-08T07:37:11.378Z,42.19
2017-05-08T07:38:33.061Z,42.38
2017-05-08T07:39:34.591Z,42.77
2017-05-08T07:40:56.233Z,43.05
2017-05-08T07:41:57.764Z,42.77
2017-05-08T07:43:19.410Z,42.86
2017-05-08T07:44:20.941Z,42.96
2017-05-08T07:45:42.622Z,42.57
2017-05-08T07:46:44.152Z,43.33
2017-05-08T07:48:05.801Z,43.55
2017-05-08T07:49:07.335Z,43.46
2017-05-08T07:50:28.979Z,42.88
2017-05-08T07:51:30.510Z,41.93
2017-05-08T07:52:52.190Z,40.49
2017-05-08T07:53:53.721Z,40.30
2017-05-08T07:55:15.367Z,40.01
2017-05-08T07:56:16.904Z,39.44
2017-05-08T07:57:38.551Z,39.35
2017-05-08T07:58:40.080Z,39.64
2017-05-08T08:00:01.751Z,39.54
2017-05-08T08:01:03.282Z,39.64
2017-05-08T08:02:24.928Z,39.25
2017-05-08T08:03:26.459Z,39.27
2017-05-08T08:04:48.109Z,39.37
2017-05-08T08:05:49.640Z,39.27
2017-05-08T08:07:11.308Z,37.74
2017-05-08T08:08:12.840Z,36.69
2017-05-08T08:09:34.482Z,36.88
2017-05-08T08:10:36.011Z,37.65
2017-05-08T08:11:57.653Z,37.66
2017-05-08T08:12:59.187Z,37.38
2017-05-08T08:14:20.869Z,37.74
2017-05-08T08:15:22.400Z,37.85
2017-05-08T08:16:44.044Z,38.43
2017-05-08T08:17:45.577Z,36.90
2017-05-08T08:19:07.220Z,34.70
2017-05-08T08:20:08.755Z,33.56
2017-05-08T08:21:30.438Z,33.46
2017-05-08T08:22:31.968Z,33.56
2017-05-08T08:23:53.614Z,33.75
2017-05-08T08:24:55.149Z,33.75
2017-05-08T08:26:16.796Z,32.98
2017-05-08T08:27:18.329Z,32.79
2017-05-08T08:28:40.015Z,32.79
2017-05-08T08:29:41.545Z,33.27
2017-05-08T08:31:03.190Z,33.27
2017-05-08T08:32:04.757Z,32.89
2017-05-08T08:33:26.369Z,33.75
2017-05-08T08:34:27.902Z,34.99
2017-05-08T08:35:49.571Z,35.85
2017-05-08T08:36:51.108Z,35.75
2017-05-08T08:38:12.758Z,35.68
2017-05-08T08:39:14.293Z,35.39
2017-05-08T08:40:35.937Z,34.53
2017-05-08T08:41:37.471Z,34.05
2017-05-08T08:42:59.143Z,34.05
2017-05-08T08:44:00.679Z,34.32
2017-05-08T08:45:22.331Z,33.76
2017-05-08T08:46:23.865Z,33.84
2017-05-08T08:47:45.511Z,34.13
2017-05-08T08:48:47.045Z,34.42
2017-05-08T08:50:08.729Z,34.61
2017-05-08T08:51:10.261Z,34.99
2017-05-08T08:52:31.911Z,35.20
2017-05-08T08:53:33.453Z,35.00
2017-05-08T08:54:55.096Z,33.86
2017-05-08T08:55:56.628Z,33.86
2017-05-08T08:57:18.295Z,33.95
2017-05-08T08:58:19.827Z,34.05
2017-05-08T08:59:41.514Z,32.62
2017-05-08T09:00:43.050Z,31.95
2017-05-08T09:02:04.700Z,32.23
2017-05-08T09:03:06.231Z,33.59
2017-05-08T09:04:27.909Z,33.69
2017-05-08T09:05:29.444Z,33.11
2017-05-08T09:06:51.122Z,32.92
2017-05-08T09:07:52.622Z,32.15
2017-05-08T09:09:14.270Z,31.67
2017-05-08T09:10:15.800Z,32.06
2017-05-08T09:11:37.478Z,32.25
2017-05-08T09:12:39.012Z,31.67
2017-05-08T09:14:00.654Z,30.62
2017-05-08T09:15:02.187Z,30.24
2017-05-08T09:16:23.832Z,31.01
2017-05-08T09:17:25.362Z,31.95
2017-05-08T09:18:47.035Z,33.00
2017-05-08T09:19:48.566Z,32.90
2017-05-08T09:21:10.210Z,33.00
2017-05-08T09:22:11.740Z,33.19
2017-05-08T09:23:33.393Z,32.23
2017-05-08T09:24:34.924Z,32.33
2017-05-08T09:25:56.606Z,32.63
2017-05-08T09:26:58.140Z,32.73
2017-05-08T09:28:19.790Z,32.54
2017-05-08T09:29:21.324Z,31.77
2017-05-08T09:30:42.970Z,31.67
2017-05-08T09:31:44.504Z,32.17
2017-05-08T09:33:06.178Z,32.55
2017-05-08T09:34:07.717Z,31.79
2017-05-08T09:35:29.360Z,31.98
2017-05-08T09:36:30.897Z,31.51
2017-05-08T09:37:52.549Z,32.28
2017-05-08T09:38:54.084Z,31.80
2017-05-08T09:40:15.763Z,33.04
2017-05-08T09:41:17.296Z,33.53
2017-05-08T09:42:38.948Z,33.06
2017-05-08T09:43:40.482Z,32.78
2017-05-08T09:45:02.138Z,33.06
2017-05-08T09:46:03.674Z,33.45
2017-05-08T09:47:25.354Z,33.64
2017-05-08T09:48:26.887Z,33.83
2017-05-08T09:49:48.535Z,33.53
2017-05-08T09:50:50.069Z,34.00
2017-05-08T09:52:11.717Z,35.06
2017-05-08T09:53:13.254Z,36.10
2017-05-08T09:54:35.423Z,36.29
2017-05-08T09:55:36.954Z,36.38
2017-05-08T09:56:58.608Z,36.47
2017-05-08T09:58:00.140Z,36.75
2017-05-08T09:59:21.791Z,36.65
2017-05-08T10:00:23.326Z,36.36
2017-05-08T10:01:45.001Z,36.36
2017-05-08T10:02:46.534Z,36.27
2017-05-08T10:04:08.190Z,35.88
2017-05-08T10:05:09.726Z,36.38
2017-05-08T10:06:31.380Z,36.19
2017-05-08T10:07:32.914Z,36.10
2017-05-08T10:08:54.593Z,36.38
2017-05-08T10:09:56.129Z,36.86
2017-05-08T10:11:17.782Z,36.96
2017-05-08T10:12:19.320Z,37.34
2017-05-08T10:13:40.966Z,36.96
2017-05-08T10:14:42.501Z,37.72
2017-05-08T10:16:04.180Z,37.92
2017-05-08T10:17:05.717Z,38.18
2017-05-08T10:18:27.372Z,38.68
2017-05-08T10:19:28.907Z,39.04
2017-05-08T10:20:50.562Z,39.35
2017-05-08T10:21:52.097Z,39.35
2017-05-08T10:23:13.775Z,39.35
2017-05-08T10:24:15.306Z,39.73
2017-05-08T10:25:36.958Z,39.64
2017-05-08T10:26:38.492Z,39.92
2017-05-08T10:28:00.147Z,40.02
2017-05-08T10:29:01.678Z,40.69
2017-05-08T10:30:23.355Z,40.78
2017-05-08T10:31:24.891Z,40.95
2017-05-08T10:32:46.544Z,42.01
2017-05-08T10:33:48.078Z,42.49
2017-05-08T10:35:09.728Z,43.06
2017-05-08T10:36:11.271Z,43.06
2017-05-08T10:37:32.936Z,42.87
2017-05-08T10:38:34.472Z,43.06
2017-05-08T10:39:56.119Z,43.73
2017-05-08T10:40:57.645Z,43.73
2017-05-08T10:42:19.293Z,43.06
2017-05-08T10:43:20.827Z,42.97
2017-05-08T10:44:42.505Z,43.16
2017-05-08T10:45:44.039Z,44.12
2017-05-08T10:47:05.695Z,43.52
2017-05-08T10:48:07.225Z,43.71
2017-05-08T10:49:28.871Z,44.38
2017-05-08T10:50:30.405Z,44.95
2017-05-08T10:51:52.091Z,45.03
2017-05-08T10:52:53.625Z,46.08
2017-05-08T10:54:15.272Z,46.84
2017-05-08T10:55:16.803Z,46.94
2017-05-08T10:56:38.449Z,47.52
2017-05-08T10:57:39.984Z,47.61
2017-05-08T10:59:01.669Z,47.97
2017-05-08T11:00:03.197Z,48.83
2017-05-08T11:01:24.843Z,49.59
2017-05-08T11:02:26.375Z,50.93
2017-05-08T11:03:48.020Z,51.00
2017-05-08T11:04:49.551Z,51.76
2017-05-08T11:06:11.231Z,52.15
2017-05-08T11:07:12.763Z,52.72
2017-05-08T11:08:34.409Z,54.53
2017-05-08T11:09:35.943Z,56.73
2017-05-08T11:10:57.588Z,58.36
2017-05-08T11:11:59.121Z,59.78
2017-05-08T11:13:20.796Z,61.03
2017-05-08T11:14:22.328Z,61.69
2017-05-08T11:15:43.979Z,62.75
2017-05-08T11:16:45.513Z,63.23
2017-05-08T11:18:07.159Z,64.18
2017-05-08T11:19:08.695Z,65.42
2017-05-08T11:20:30.375Z,66.95
2017-05-08T11:21:31.907Z,67.14
2017-05-08T11:22:53.553Z,66.82
2017-05-08T11:23:55.084Z,67.58
2017-05-08T11:25:16.735Z,67.97
2017-05-08T11:26:18.268Z,67.87
2017-05-08T11:27:39.941Z,68.44
2017-05-08T11:28:41.474Z,68.92
2017-05-08T11:30:03.122Z,70.07
2017-05-08T11:31:04.656Z,70.83
2017-05-08T11:32:26.303Z,71.21
2017-05-08T11:33:27.834Z,71.50
2017-05-08T11:34:49.506Z,72.17
2017-05-08T11:35:51.037Z,71.98
2017-05-08T11:37:12.693Z,71.98
2017-05-08T11:38:14.218Z,71.78
2017-05-08T11:39:35.863Z,71.59
2017-05-08T11:40:37.397Z,71.78
2017-05-08T11:41:59.066Z,71.88
2017-05-08T11:43:00.597Z,71.88
2017-05-08T11:44:22.245Z,72.13
2017-05-08T11:45:23.779Z,72.13
2017-05-08T11:46:45.422Z,72.80
2017-05-08T11:47:46.953Z,72.42
2017-05-08T11:49:08.638Z,72.71
2017-05-08T11:50:10.167Z,72.42
2017-05-08T11:51:31.812Z,72.99
2017-05-08T11:52:33.345Z,72.71
2017-05-08T11:53:55.481Z,72.61
2017-05-08T11:54:57.013Z,73.18
2017-05-08T11:56:18.688Z,73.75
2017-05-08T11:57:20.218Z,74.01
2017-05-08T11:58:41.863Z,74.38
2017-05-08T11:59:43.392Z,74.86
2017-05-08T12:01:05.034Z,75.15
2017-05-08T12:02:06.565Z,74.96
2017-05-08T12:03:28.249Z,74.96
2017-05-08T12:04:29.779Z,75.15
2017-05-08T12:05:51.426Z,75.72
2017-05-08T12:06:52.956Z,75.72
2017-05-08T12:08:14.604Z,75.24
2017-05-08T12:09:16.134Z,75.62
2017-05-08T12:10:37.813Z,77.15
2017-05-08T12:11:39.342Z,77.72
2017-05-08T12:13:00.989Z,79.02
2017-05-08T12:14:02.518Z,79.02
2017-05-08T12:15:24.162Z,79.78
2017-05-08T12:16:25.692Z,79.49
2017-05-08T12:17:47.369Z,79.78
2017-05-08T12:18:48.897Z,79.78
2017-05-08T12:20:10.545Z,79.40
2017-05-08T12:21:12.078Z,79.72
2017-05-08T12:22:33.720Z,79.63
2017-05-08T12:23:35.251Z,79.78
2017-05-08T12:24:56.934Z,80.16
2017-05-08T12:25:58.464Z,80.54
2017-05-08T12:27:20.109Z,79.78
2017-05-08T12:28:21.637Z,79.59
2017-05-08T12:29:43.281Z,79.59
2017-05-08T12:30:44.811Z,79.68
2017-05-08T12:32:06.510Z,79.88
2017-05-08T12:33:08.041Z,78.54
2017-05-08T12:34:30.188Z,78.92
2017-05-08T12:35:31.707Z,78.54
2017-05-08T12:36:53.353Z,78.83
2017-05-08T12:37:54.882Z,78.73
2017-05-08T12:39:16.561Z,78.73
2017-05-08T12:40:18.089Z,78.92
2017-05-08T12:41:39.736Z,78.92
2017-05-08T12:42:41.270Z,79.02
2017-05-08T12:44:02.915Z,79.11
2017-05-08T12:45:04.444Z,79.21
2017-05-08T12:46:26.117Z,79.11
2017-05-08T12:47:27.649Z,78.44
2017-05-08T12:48:49.297Z,78.73
2017-05-08T12:49:50.828Z,79.11
2017-05-08T12:51:12.477Z,78.54
2017-05-08T12:52:14.006Z,78.64
2017-05-08T12:53:35.677Z,78.25
2017-05-08T12:54:37.207Z,78.16
2017-05-08T12:55:58.853Z,78.06
2017-05-08T12:57:00.406Z,78.83
2017-05-08T12:58:22.083Z,78.54
2017-05-08T12:59:23.619Z,78.54
2017-05-08T13:00:45.302Z,78.73
2017-05-08T13:01:46.829Z,78.06
2017-05-08T13:03:08.470Z,77.97
2017-05-08T13:04:10.003Z,78.16
2017-05-08T13:05:31.650Z,78.64
2017-05-08T13:06:33.173Z,78.64
2017-05-08T13:07:54.841Z,78.69
2017-05-08T13:08:56.373Z,79.27
2017-05-08T13:10:18.026Z,78.88
2017-05-08T13:11:19.553Z,79.64
2017-05-08T13:12:41.196Z,79.64
2017-05-08T13:13:42.726Z,80.12
2017-05-08T13:15:04.399Z,80.02
2017-05-08T13:16:05.930Z,80.50
2017-05-08T13:17:27.575Z,80.60
2017-05-08T13:18:29.106Z,81.74
2017-05-08T13:19:50.749Z,81.55
2017-05-08T13:20:52.277Z,81.55
2017-05-08T13:22:13.949Z,81.84
2017-05-08T13:23:15.482Z,82.12
2017-05-08T13:24:37.123Z,82.03
2017-05-08T13:25:38.652Z,82.12
2017-05-08T13:27:00.300Z,82.12
2017-05-08T13:28:01.827Z,82.03
2017-05-08T13:29:23.509Z,82.03
2017-05-08T13:30:25.040Z,82.98
2017-05-08T13:31:46.687Z,82.50
2017-05-08T13:32:48.216Z,82.21
2017-05-08T13:34:09.858Z,82.31
2017-05-08T13:35:11.387Z,81.84
2017-05-08T13:36:33.071Z,82.27
2017-05-08T13:37:34.604Z,82.60
2017-05-08T13:38:56.249Z,82.41
2017-05-08T13:39:57.780Z,81.46
2017-05-08T13:41:19.423Z,80.69
2017-05-08T13:42:20.954Z,80.79
2017-05-08T13:43:42.629Z,81.17
2017-05-08T13:44:44.159Z,81.65
2017-05-08T13:46:05.801Z,81.89
2017-05-08T13:47:07.331Z,81.79
2017-05-08T13:48:28.977Z,82.27
2017-05-08T13:49:30.506Z,82.18
2017-05-08T13:50:52.178Z,82.12
2017-05-08T13:51:53.707Z,82.75
2017-05-08T13:53:15.350Z,82.93
2017-05-08T13:54:16.881Z,82.65
2017-05-08T13:55:38.523Z,82.65
2017-05-08T13:56:40.051Z,82.65
2017-05-08T13:58:01.728Z,83.51
2017-05-08T13:59:03.361Z,83.89
2017-05-08T14:00:25.010Z,83.80
2017-05-08T14:01:26.540Z,83.89
2017-05-08T14:02:48.184Z,84.36
2017-05-08T14:03:49.710Z,85.03
2017-05-08T14:05:11.377Z,85.03
2017-05-08T14:06:12.908Z,85.13
2017-05-08T14:07:34.552Z,85.66
2017-05-08T14:08:36.081Z,86.18
2017-05-08T14:09:57.723Z,85.75
2017-05-08T14:10:59.248Z,85.85
2017-05-08T14:12:20.919Z,86.42
2017-05-08T14:13:22.444Z,87.23
2017-05-08T14:14:44.101Z,86.55
2017-05-08T14:15:46.887Z,86.27
2017-05-08T14:17:08.593Z,85.22
2017-05-08T14:18:10.121Z,84.75
2017-05-08T14:19:31.796Z,84.36
2017-05-08T14:20:33.329Z,84.75
2017-05-08T14:21:54.968Z,84.84
2017-05-08T14:22:56.507Z,85.32
2017-05-08T14:24:18.187Z,84.56
2017-05-08T14:25:19.903Z,84.89
2017-05-08T14:26:41.586Z,85.37
2017-05-08T14:27:43.123Z,85.47
2017-05-08T14:29:04.770Z,85.18
2017-05-08T14:30:06.302Z,85.56
2017-05-08T14:31:28.024Z,85.56
2017-05-08T14:32:29.517Z,85.47
2017-05-08T14:33:51.680Z,86.22
2017-05-08T14:34:53.199Z,86.42
2017-05-08T14:36:14.840Z,86.32
2017-05-08T14:37:16.371Z,85.94
2017-05-08T14:38:38.013Z,86.42
2017-05-08T14:39:39.575Z,86.99
2017-05-08T14:41:01.249Z,87.27
2017-05-08T14:42:02.854Z,87.56
2017-05-08T14:43:24.497Z,87.27
2017-05-08T14:44:26.250Z,87.46
2017-05-08T14:45:47.899Z,88.13
2017-05-08T14:46:49.461Z,88.32
2017-05-08T14:48:11.137Z,87.46
2017-05-08T14:49:12.691Z,88.42
2017-05-08T14:50:34.334Z,87.94
2017-05-08T14:51:35.864Z,87.75
2017-05-08T14:52:58.587Z,87.27
2017-05-08T15:28:49.049Z,87.75
2017-05-08T15:29:50.574Z,87.85
2017-05-08T15:31:12.724Z,88.13
2017-05-08T15:32:14.249Z,89.18
2017-05-08T15:33:35.895Z,89.47
2017-05-08T15:34:37.451Z,89.56
2017-05-08T15:35:59.131Z,89.75
2017-05-08T15:37:00.648Z,90.13
2017-05-08T15:38:22.277Z,90.42
2017-05-08T15:39:23.811Z,90.32
2017-05-08T15:40:45.451Z,90.32
2017-05-08T15:41:46.982Z,90.13
2017-05-08T15:43:08.644Z,90.22
2017-05-08T15:44:10.219Z,90.22
2017-05-08T15:45:31.869Z,89.99
2017-05-08T15:46:33.394Z,90.32
2017-05-08T15:47:55.080Z,89.75
2017-05-08T15:48:56.605Z,90.18
2017-05-08T15:50:18.271Z,89.75
2017-05-08T15:51:19.797Z,89.75
2017-05-08T15:52:41.439Z,90.18
2017-05-08T15:53:42.966Z,90.42
2017-05-08T15:55:04.610Z,90.22
2017-05-08T15:56:06.135Z,90.28